TENO2: Tenkiller Lake

Data processed at Thu Jan 23 2020 22:15


All information presented herein is the property of the government of the United States of America and may be revised or deleted at any time without prior notice.
Dissemination of this information without the expressed written consent of the Public Affairs Office, Tulsa District U.S. Army Corps of Engineers is strictly prohibited.
These data are gathered electronically and, as presented, have not undergone any form of quality control. These data are not guaranteed to be valid or correct.
Go to home page.
Go to station list.
Go to home page.

Upstream stations:

Downstream station:
Previous Day
Next Day
Current Day
    
SHEF ID:       TENO2     Tenkiller Lake
STATION TYPE:  Reservoir
Flood Pool:  Bottom =   632.00, Top =   667.00

               PRECIP PRECIP(A) ELEVATION   STORAGE   TW-ELEV    INFLOW   RELEASE  AIR-TEMP  WIND-DIRWIND-SPEED REL-HUMID SOLAR-RAD   VOLTAGE  BAT-LOAD
                   in        in        ft     ac-ft        ft       cfs       cfs         F       deg       mph         %      W/m2      volt      volt
              Ccp-Rev   Ccp-Rev   Ccp-Rev   Ccp-Rev   Ccp-Rev  Rev-Regi  Rev-Regi   Ccp-Rev   Ccp-Rev   Ccp-Rev   Ccp-Rev   Ccp-Rev   Ccp-Rev   Ccp-Rev
(US/Central)
01/23 00:00      0.00      ----    641.08    793352    489.95      3817      7739     34.97     87.50      4.40     66.84      0.00     13.61     13.03
01/23 01:00      0.00      ----    641.05    792912    489.86      4172      7738     34.88     87.50      3.90     63.05      0.00     13.61     13.03
01/23 02:00      0.01      ----    641.03    792619    489.94      3847      7738     34.88     91.30      3.20     76.32      0.00     13.61     13.03
01/23 03:00      0.02      ----    641.01    792326    489.91      3852      7738     34.84     89.90      3.10     67.60      0.00     13.61     13.03
01/23 04:00      0.01      ----    640.98    791890    489.83      3520      7737     34.90     91.60      2.90     63.65      0.00     13.61     13.03
01/23 05:00      0.00      ----    640.97    791746    489.92      3531      7737     34.86     82.90      3.00     63.49      0.00     13.61     13.03
01/23 06:00      0.00      ----    640.93    791169    489.88      3891      7736     35.02     70.80      1.80     66.92      0.00     13.61     13.03
01/23 07:00      0.00      ----    640.91    790881    489.90      4245      7736     35.01     79.30      2.20     65.40      0.00     13.61     13.03
01/23 08:00      0.00      ----    640.90    790736    489.95      3547      7736     35.11     42.60      1.80     64.73      0.00     13.61     13.03
01/23 09:00      0.01      ----    640.88    790448    489.92      4594      7736     35.33    358.10      1.60     65.45      0.20     13.61     13.03
01/23 10:00      0.00      ----    640.85    790015    489.90      4263      7735     35.71    336.70      2.30     66.74     22.00     13.61     13.03
01/23 11:00      0.00      ----    640.84    789871    489.92      3916      7829     36.36    260.20      2.10     56.02     71.50     13.61     13.03
01/23 12:00      0.00      ----    640.81    789438    489.86      3828      7622     37.47    247.90      1.90     61.82     98.40     13.61     13.03
01/23 13:00      0.00      ----    640.80    789294    488.94      4089      5550     38.59    226.50      1.90     59.06     96.60     13.61     13.03
01/23 14:00      0.00      ----    640.79    789150    488.75      4016      5550     40.55    223.80      0.40     61.28    104.20     13.61     13.03
01/23 15:00      0.00      ----    640.78    789005    488.68      4604      5623     43.03    133.60      0.70     63.26    143.70     13.61     13.03
01/23 16:00      0.00      ----    640.78    789005    487.52      4837      5532     46.58    105.20      2.40     50.96    271.40     13.61     12.94
01/23 17:00      0.00      ----    640.78    789005    487.29      5183      5421     46.45     89.80      0.80     55.40     69.10     13.62     13.03
01/23 18:00      0.00      ----    640.78    789005    487.26      6222      5532     45.34    129.20      0.10     60.29      5.00     13.61     13.09
01/23 19:00      0.00      ----    640.78    789005    487.32      5502      5512     41.40    157.60      0.20     63.98      0.00     13.61     13.03
01/23 20:00      0.00      ----    640.80    789294    487.27      6196      5512     39.43    150.40      0.30     61.77      0.00     13.61     13.03
01/23 21:00      0.00      ----    640.78    789005    487.23      4120      5512     41.77    228.30      2.40     56.45      0.00     13.61     13.03
01/23 22:00      ----      ----      ----      ----      ----      ----      ----      ----      ----      ----      ----      ----      ----      ----
01/23 23:00      ----      ----      ----      ----      ----      ----      ----      ----      ----      ----      ----      ----      ----      ----